createdAt,value
2022-07-26T00:00:21.043Z,13.77
2022-07-26T00:02:50.653Z,12.45
2022-07-26T00:05:20.422Z,12.93
2022-07-26T00:07:49.718Z,11.70
2022-07-26T00:10:19.139Z,12.38
2022-07-26T00:12:48.452Z,11.00
2022-07-26T00:15:17.869Z,9.50
2022-07-26T00:17:47.153Z,9.20
2022-07-26T00:20:16.325Z,6.88
2022-07-26T00:22:48.487Z,7.35
2022-07-26T00:25:18.522Z,6.50
2022-07-26T00:27:47.994Z,4.82
2022-07-26T00:30:18.192Z,4.97
2022-07-26T00:32:47.745Z,6.15
2022-07-26T00:35:17.317Z,8.77
2022-07-26T00:37:46.750Z,7.97
2022-07-26T00:40:17.351Z,6.43
2022-07-26T00:42:48.180Z,6.07
2022-07-26T00:45:18.913Z,6.05
2022-07-26T00:47:48.415Z,6.18
2022-07-26T00:50:20.592Z,6.13
2022-07-26T00:52:52.232Z,4.90
2022-07-26T00:55:22.094Z,5.03
2022-07-26T00:57:51.688Z,5.00
2022-07-26T01:00:28.849Z,3.97
2022-07-26T01:03:01.600Z,4.97
2022-07-26T01:05:31.612Z,6.68
2022-07-26T01:08:01.135Z,10.57
2022-07-26T01:10:30.534Z,5.13
2022-07-26T01:12:59.869Z,5.13
2022-07-26T01:15:29.368Z,4.60
2022-07-26T01:17:58.828Z,4.93
2022-07-26T01:20:28.298Z,4.40
2022-07-26T01:22:57.579Z,3.40
2022-07-26T01:25:43.123Z,2.88
2022-07-26T01:28:19.717Z,3.70
2022-07-26T01:30:51.308Z,2.70
2022-07-26T01:33:20.647Z,2.70
2022-07-26T01:35:50.039Z,2.35
2022-07-26T01:38:19.316Z,2.35
2022-07-26T01:40:49.306Z,2.90
2022-07-26T01:43:19.093Z,3.13
2022-07-26T01:45:51.017Z,2.90
2022-07-26T01:48:22.848Z,3.55
2022-07-26T01:50:54.551Z,3.65
2022-07-26T01:53:24.204Z,2.08
2022-07-26T01:55:53.757Z,2.35
2022-07-26T01:58:26.651Z,2.30
2022-07-26T02:01:02.073Z,2.80
2022-07-26T02:03:33.745Z,2.97
2022-07-26T02:06:10.834Z,2.35
2022-07-26T02:08:46.753Z,2.83
2022-07-26T02:11:26.081Z,3.17
2022-07-26T02:14:01.449Z,2.17
2022-07-26T02:16:30.757Z,2.50
2022-07-26T02:19:00.290Z,1.90
2022-07-26T02:21:29.605Z,1.92
2022-07-26T02:24:00.248Z,3.35
2022-07-26T02:26:29.752Z,1.55
2022-07-26T02:29:01.856Z,1.65
2022-07-26T02:31:32.414Z,1.80
2022-07-26T02:34:01.934Z,2.70
2022-07-26T02:36:31.383Z,2.83
2022-07-26T02:39:00.804Z,2.30
2022-07-26T02:41:30.613Z,1.63
2022-07-26T02:44:00.615Z,1.80
2022-07-26T02:46:29.999Z,1.90
2022-07-26T02:49:00.852Z,2.45
2022-07-26T02:51:30.595Z,2.50
2022-07-26T02:53:59.879Z,1.40
2022-07-26T02:56:29.709Z,1.58
2022-07-26T02:58:59.416Z,1.35
2022-07-26T03:01:29.066Z,1.55
2022-07-26T03:03:58.668Z,1.98
2022-07-26T03:06:27.988Z,1.80
2022-07-26T03:08:57.256Z,1.33
2022-07-26T03:11:26.647Z,2.10
2022-07-26T03:13:55.906Z,1.52
2022-07-26T03:16:29.465Z,2.00
2022-07-26T03:19:01.434Z,2.30
2022-07-26T03:21:31.022Z,3.53
2022-07-26T03:24:00.324Z,1.65
2022-07-26T03:26:30.496Z,1.60
2022-07-26T03:29:00.106Z,3.92
2022-07-26T03:31:29.534Z,3.03
2022-07-26T03:34:03.109Z,1.13
2022-07-26T03:36:33.040Z,1.02
2022-07-26T03:39:02.419Z,1.77
2022-07-26T03:41:35.156Z,1.13
2022-07-26T03:44:04.824Z,1.35
2022-07-26T03:46:34.217Z,2.15
2022-07-26T03:49:04.544Z,2.30
2022-07-26T03:51:35.093Z,2.55
2022-07-26T03:54:04.425Z,1.83
2022-07-26T03:56:33.891Z,1.80
2022-07-26T03:59:09.253Z,1.73
2022-07-26T04:01:43.007Z,1.60
2022-07-26T04:04:18.167Z,2.10
2022-07-26T04:07:03.286Z,1.65
2022-07-26T04:09:33.260Z,1.30
2022-07-26T04:12:02.720Z,2.20
2022-07-26T04:14:32.105Z,1.83
2022-07-26T04:17:01.434Z,2.58
2022-07-26T04:19:30.678Z,3.13
2022-07-26T04:22:00.534Z,1.40
2022-07-26T04:24:29.926Z,2.10
2022-07-26T04:26:59.283Z,2.97
2022-07-26T04:29:28.596Z,1.52
2022-07-26T04:31:57.890Z,1.20
2022-07-26T04:34:27.184Z,1.65
2022-07-26T04:36:56.505Z,1.45
2022-07-26T04:39:25.877Z,2.13
2022-07-26T04:41:55.762Z,3.00
2022-07-26T04:44:25.039Z,1.23
2022-07-26T04:46:54.337Z,1.95
2022-07-26T04:49:23.680Z,1.58
2022-07-26T04:51:56.247Z,2.28
2022-07-26T04:54:28.628Z,1.42
2022-07-26T04:56:57.828Z,1.40
2022-07-26T04:59:27.085Z,3.70
2022-07-26T05:01:56.506Z,2.05
2022-07-26T05:04:28.700Z,1.80
2022-07-26T05:07:03.426Z,2.42
2022-07-26T05:09:35.149Z,2.28
2022-07-26T05:12:04.611Z,2.83
2022-07-26T05:14:34.031Z,2.03
2022-07-26T05:17:08.687Z,2.90
2022-07-26T05:19:39.986Z,2.15
2022-07-26T05:22:09.314Z,2.03
2022-07-26T05:24:38.747Z,2.10
2022-07-26T05:27:08.255Z,2.13
2022-07-26T05:29:37.653Z,1.33
2022-07-26T05:32:07.574Z,1.20
2022-07-26T05:34:37.013Z,1.65
2022-07-26T05:37:06.381Z,1.40
2022-07-26T05:39:35.777Z,1.40
2022-07-26T05:42:05.178Z,2.05
2022-07-26T05:44:34.779Z,1.40
2022-07-26T05:47:12.033Z,1.90
2022-07-26T05:49:41.669Z,1.85
2022-07-26T05:52:11.322Z,2.00
2022-07-26T05:54:40.840Z,3.33
2022-07-26T05:57:10.140Z,2.03
2022-07-26T05:59:39.559Z,2.75
2022-07-26T06:02:09.635Z,4.03
2022-07-26T06:04:39.136Z,1.63
2022-07-26T06:07:08.900Z,2.38
2022-07-26T06:09:38.316Z,3.50
2022-07-26T06:12:08.087Z,2.47
2022-07-26T06:14:37.394Z,2.55
2022-07-26T06:17:06.850Z,2.00
2022-07-26T06:19:36.546Z,2.15
2022-07-26T06:22:06.262Z,1.50
2022-07-26T06:24:35.725Z,1.33
2022-07-26T06:27:06.625Z,1.60
2022-07-26T06:29:36.034Z,1.98
2022-07-26T06:32:05.664Z,2.60
2022-07-26T06:34:35.298Z,2.95
2022-07-26T06:37:04.571Z,1.45
2022-07-26T06:39:33.969Z,2.35
2022-07-26T06:42:04.024Z,1.42
2022-07-26T06:44:33.416Z,1.73
2022-07-26T06:47:02.656Z,1.65
2022-07-26T06:49:32.192Z,2.45
2022-07-26T06:52:01.837Z,1.80
2022-07-26T06:54:31.196Z,1.70
2022-07-26T06:57:00.481Z,2.78
2022-07-26T06:59:29.775Z,1.58
2022-07-26T07:02:00.527Z,1.77
2022-07-26T07:04:32.239Z,2.22
2022-07-26T07:07:06.892Z,2.00
2022-07-26T07:09:37.261Z,2.75
2022-07-26T07:12:09.995Z,1.58
2022-07-26T07:14:44.066Z,1.42
2022-07-26T07:17:18.464Z,2.10
2022-07-26T07:19:49.841Z,2.15
2022-07-26T07:22:19.444Z,2.92
2022-07-26T07:24:48.847Z,2.25
2022-07-26T07:27:18.736Z,1.73
2022-07-26T07:29:50.618Z,2.67
2022-07-26T07:32:20.068Z,2.17
2022-07-26T07:34:50.854Z,1.85
2022-07-26T07:37:20.652Z,1.80
2022-07-26T07:39:51.006Z,2.03
2022-07-26T07:42:21.813Z,1.83
2022-07-26T07:44:51.813Z,1.50
2022-07-26T07:47:21.022Z,2.05
2022-07-26T07:49:50.529Z,2.05
2022-07-26T07:52:20.012Z,2.40
2022-07-26T07:54:49.439Z,2.40
2022-07-26T07:57:20.134Z,2.03
2022-07-26T07:59:52.220Z,1.77
2022-07-26T08:02:28.015Z,2.03
2022-07-26T08:05:00.446Z,2.45
2022-07-26T08:07:33.246Z,2.28
2022-07-26T08:10:13.387Z,2.10
2022-07-26T08:12:51.171Z,3.28
2022-07-26T08:20:56.932Z,2.05
2022-07-26T08:23:26.737Z,1.85
2022-07-26T08:25:58.638Z,1.70
2022-07-26T08:28:46.718Z,1.70
2022-07-26T08:31:17.574Z,3.33
2022-07-26T08:33:47.220Z,2.05
2022-07-26T08:36:19.178Z,3.30
2022-07-26T08:38:48.711Z,2.50
2022-07-26T08:41:24.201Z,3.97
2022-07-26T08:43:53.931Z,1.85
2022-07-26T08:46:28.204Z,0.82
2022-07-26T08:48:58.678Z,1.85
2022-07-26T08:51:28.709Z,1.75
2022-07-26T08:54:05.625Z,1.50
2022-07-26T08:56:53.831Z,1.55
2022-07-26T08:59:23.841Z,2.35
2022-07-26T09:02:09.370Z,1.55
2022-07-26T09:04:44.632Z,1.35
2022-07-26T09:07:19.070Z,1.88
2022-07-26T09:10:11.794Z,1.52
2022-07-26T09:12:43.013Z,1.33
2022-07-26T09:15:25.785Z,1.05
2022-07-26T09:17:59.257Z,0.90
2022-07-26T09:20:33.165Z,1.13
2022-07-26T09:23:21.273Z,1.17
2022-07-26T09:25:50.938Z,4.05
2022-07-26T09:28:31.235Z,1.42
2022-07-26T09:31:04.792Z,0.80
2022-07-26T09:33:48.152Z,1.00
2022-07-26T09:36:18.958Z,1.00
2022-07-26T09:39:03.186Z,0.80
2022-07-26T09:41:42.171Z,0.47
2022-07-26T09:44:26.577Z,0.85
2022-07-26T09:47:00.707Z,0.88
2022-07-26T09:49:40.181Z,0.73
2022-07-26T09:52:23.231Z,0.57
2022-07-26T09:54:52.517Z,1.08
2022-07-26T09:57:24.465Z,1.48
2022-07-26T09:59:54.169Z,0.95
2022-07-26T10:02:23.448Z,0.75
2022-07-26T10:04:53.072Z,0.90
2022-07-26T10:07:22.576Z,0.50
2022-07-26T10:10:03.494Z,0.75
2022-07-26T10:12:35.265Z,0.95
2022-07-26T10:15:05.028Z,1.00
2022-07-26T10:17:45.499Z,1.33
2022-07-26T10:20:47.069Z,1.80
2022-07-26T10:23:44.485Z,1.27
2022-07-26T10:26:38.545Z,1.05
2022-07-26T10:29:27.447Z,1.77
2022-07-26T10:32:17.794Z,1.05
2022-07-26T10:34:47.663Z,1.05
2022-07-26T10:37:28.751Z,2.30
2022-07-26T10:40:20.481Z,2.33
2022-07-26T10:42:50.278Z,2.15
2022-07-26T10:45:23.742Z,1.33
2022-07-26T10:48:17.115Z,2.20
2022-07-26T10:50:51.766Z,1.52
2022-07-26T10:53:28.354Z,1.80
2022-07-26T10:56:00.078Z,2.05
2022-07-26T10:58:29.492Z,1.77
2022-07-26T11:01:05.669Z,2.08
2022-07-26T11:03:45.293Z,1.63
2022-07-26T11:06:21.200Z,1.27
2022-07-26T11:08:50.913Z,1.00
2022-07-26T11:11:36.218Z,1.73
2022-07-26T11:14:17.601Z,1.60
2022-07-26T11:16:52.285Z,1.83
2022-07-26T11:19:27.034Z,0.82
2022-07-26T11:22:00.925Z,1.23
2022-07-26T11:24:31.152Z,1.17
2022-07-26T11:27:05.915Z,1.45
2022-07-26T11:29:41.102Z,2.10
2022-07-26T11:32:25.533Z,2.35
2022-07-26T11:35:04.034Z,1.55
2022-07-26T11:37:33.692Z,1.40
2022-07-26T11:40:03.055Z,1.67
2022-07-26T11:42:32.747Z,2.47
2022-07-26T11:45:02.117Z,2.75
2022-07-26T11:47:31.480Z,2.10
2022-07-26T11:50:22.318Z,2.30
2022-07-26T11:52:53.254Z,1.90
2022-07-26T11:55:31.677Z,2.63
2022-07-26T11:58:08.109Z,2.40
2022-07-26T12:00:38.487Z,4.22
2022-07-26T12:03:07.760Z,2.25
2022-07-26T12:05:37.726Z,1.50
2022-07-26T12:08:08.344Z,2.63
2022-07-26T12:10:37.764Z,2.58
2022-07-26T12:13:16.550Z,2.40
2022-07-26T12:15:54.101Z,2.30
2022-07-26T12:18:32.722Z,1.92
2022-07-26T12:21:09.681Z,2.35
2022-07-26T12:23:54.179Z,2.38
2022-07-26T12:26:33.165Z,2.30
2022-07-26T12:29:22.633Z,3.25
2022-07-26T12:32:12.652Z,5.65
2022-07-26T12:35:03.316Z,2.10
2022-07-26T12:37:41.002Z,1.90
2022-07-26T12:40:23.592Z,2.03
2022-07-26T12:43:02.372Z,2.20
2022-07-26T12:45:35.410Z,3.15
2022-07-26T12:48:12.411Z,4.22
2022-07-26T12:50:44.099Z,4.20
2022-07-26T12:53:13.451Z,3.03
2022-07-26T12:55:42.813Z,2.95
2022-07-26T12:58:12.226Z,3.00
2022-07-26T13:00:41.677Z,2.80
2022-07-26T13:03:11.196Z,4.60
2022-07-26T13:05:40.549Z,3.63
2022-07-26T13:08:09.794Z,4.05
2022-07-26T13:10:39.166Z,4.90
2022-07-26T13:13:08.478Z,4.38
2022-07-26T13:15:38.091Z,4.32
2022-07-26T13:18:11.166Z,5.95
2022-07-26T13:20:40.826Z,3.78
2022-07-26T13:23:13.967Z,4.72
2022-07-26T13:25:51.822Z,3.00
2022-07-26T13:28:36.707Z,4.03
2022-07-26T13:31:06.322Z,3.78
2022-07-26T13:33:35.924Z,5.22
2022-07-26T13:36:05.345Z,4.72
2022-07-26T13:38:34.730Z,4.75
2022-07-26T13:41:05.426Z,4.47
2022-07-26T13:43:36.520Z,3.67
2022-07-26T13:46:05.959Z,3.67
2022-07-26T13:48:35.447Z,3.85
2022-07-26T13:51:04.950Z,5.50
2022-07-26T13:53:34.256Z,4.28
2022-07-26T13:56:04.709Z,4.05
2022-07-26T13:58:36.937Z,4.68
2022-07-26T14:01:06.586Z,5.78
2022-07-26T14:03:36.010Z,4.88
2022-07-26T14:06:05.450Z,4.43
2022-07-26T14:08:34.694Z,5.40
2022-07-26T14:11:03.961Z,4.93
2022-07-26T14:13:33.278Z,4.57
2022-07-26T14:16:04.845Z,4.40
2022-07-26T14:18:34.344Z,4.20
2022-07-26T14:21:10.172Z,4.00
2022-07-26T14:23:40.080Z,4.55
2022-07-26T14:26:09.598Z,4.40
2022-07-26T14:28:44.015Z,4.50
2022-07-26T14:31:13.551Z,4.38
2022-07-26T14:33:43.234Z,3.92
2022-07-26T14:36:15.968Z,8.63
2022-07-26T14:41:29.074Z,4.40
2022-07-26T14:43:58.506Z,3.60
2022-07-26T14:46:27.917Z,3.85
2022-07-26T14:48:57.283Z,3.90
2022-07-26T14:51:26.750Z,4.32
2022-07-26T14:53:56.209Z,4.72
2022-07-26T14:56:25.559Z,4.43
2022-07-26T14:58:55.004Z,4.03
2022-07-26T15:01:24.509Z,3.45
2022-07-26T15:03:53.960Z,3.30
2022-07-26T15:06:23.367Z,2.85
2022-07-26T15:08:52.700Z,3.05
2022-07-26T15:11:21.995Z,3.10
2022-07-26T15:13:53.908Z,3.35
2022-07-26T15:16:23.361Z,3.13
2022-07-26T15:18:52.708Z,3.40
2022-07-26T15:25:34.662Z,3.15
2022-07-26T15:28:13.115Z,3.42
2022-07-26T15:30:42.693Z,3.28
2022-07-26T15:33:15.462Z,2.97
2022-07-26T15:35:47.921Z,17.85
2022-07-26T15:38:17.707Z,4.60
2022-07-26T15:40:50.105Z,3.97
2022-07-26T15:43:48.163Z,3.10
2022-07-26T15:46:16.331Z,3.47
2022-07-26T15:48:47.933Z,3.55
2022-07-26T15:51:17.834Z,3.97
2022-07-26T15:53:53.684Z,4.28
2022-07-26T15:56:23.132Z,3.30
2022-07-26T15:58:52.385Z,3.08
2022-07-26T16:01:21.889Z,3.10
2022-07-26T16:03:51.313Z,3.33
2022-07-26T16:06:20.715Z,3.40
2022-07-26T16:09:13.812Z,3.85
2022-07-26T16:11:39.511Z,4.22
2022-07-26T16:14:09.340Z,3.90
2022-07-26T16:16:38.714Z,3.50
2022-07-26T16:19:08.309Z,3.25
2022-07-26T16:21:38.821Z,3.53
2022-07-26T16:24:09.299Z,3.97
2022-07-26T16:26:38.793Z,4.10
2022-07-26T16:29:08.512Z,3.92
2022-07-26T16:31:39.078Z,4.20
2022-07-26T16:34:08.905Z,3.97
2022-07-26T16:36:38.854Z,4.00
2022-07-26T16:39:08.963Z,4.13
2022-07-26T16:41:40.414Z,3.72
2022-07-26T16:44:09.781Z,4.70
2022-07-26T16:46:39.218Z,4.28
2022-07-26T16:49:08.783Z,4.25
2022-07-26T16:51:38.438Z,3.88
2022-07-26T16:54:08.020Z,3.40
2022-07-26T16:56:37.280Z,3.25
2022-07-26T16:59:10.340Z,3.53
2022-07-26T17:01:42.984Z,3.95
2022-07-26T17:04:15.770Z,3.58
2022-07-26T17:07:01.781Z,3.42
2022-07-26T17:09:35.112Z,3.28
2022-07-26T17:12:06.595Z,3.50
2022-07-26T17:14:36.167Z,3.13
2022-07-26T17:17:05.534Z,3.58
2022-07-26T17:19:35.099Z,3.40
2022-07-26T17:22:05.107Z,3.65
2022-07-26T17:24:34.535Z,3.80
2022-07-26T17:27:03.831Z,4.07
2022-07-26T17:29:33.072Z,3.20
2022-07-26T17:32:02.489Z,2.90
2022-07-26T17:34:31.867Z,3.88
2022-07-26T17:37:08.294Z,2.58
2022-07-26T17:42:23.556Z,4.03
2022-07-26T17:44:53.604Z,3.05
2022-07-26T17:47:29.371Z,3.25
2022-07-26T17:50:35.308Z,3.97
2022-07-26T17:52:56.705Z,3.83
2022-07-26T17:55:26.364Z,3.72
2022-07-26T17:57:55.634Z,3.67
2022-07-26T18:00:26.305Z,4.22
2022-07-26T18:02:59.502Z,3.65
2022-07-26T18:05:34.120Z,3.45
2022-07-26T18:08:04.961Z,3.17
2022-07-26T18:10:34.454Z,4.00
2022-07-26T18:13:03.764Z,4.22
2022-07-26T18:15:33.043Z,3.38
2022-07-26T18:18:02.420Z,4.18
2022-07-26T18:20:31.813Z,3.80
2022-07-26T18:23:01.147Z,3.15
2022-07-26T18:25:30.946Z,3.40
2022-07-26T18:28:06.420Z,3.42
2022-07-26T18:30:36.991Z,3.47
2022-07-26T18:33:07.302Z,2.75
2022-07-26T18:35:36.730Z,3.08
2022-07-26T18:38:07.759Z,4.47
2022-07-26T18:40:37.699Z,3.38
2022-07-26T18:43:07.807Z,3.40
2022-07-26T18:45:37.138Z,3.28
2022-07-26T18:48:06.716Z,3.30
2022-07-26T18:50:36.583Z,3.10
2022-07-26T18:53:09.159Z,2.97
2022-07-26T18:55:38.458Z,3.50
2022-07-26T18:58:08.476Z,3.60
2022-07-26T19:00:37.935Z,2.92
2022-07-26T19:03:07.707Z,3.38
2022-07-26T19:05:37.312Z,3.50
2022-07-26T19:08:07.350Z,3.42
2022-07-26T19:10:37.014Z,2.97
2022-07-26T19:13:06.385Z,3.33
2022-07-26T19:15:35.706Z,3.08
2022-07-26T19:18:18.909Z,2.83
2022-07-26T19:20:48.283Z,2.63
2022-07-26T19:23:17.527Z,3.40
2022-07-26T19:25:47.611Z,3.28
2022-07-26T19:28:16.936Z,2.53
2022-07-26T19:30:46.693Z,2.78
2022-07-26T19:33:17.869Z,3.00
2022-07-26T19:35:47.370Z,3.25
2022-07-26T19:38:16.858Z,2.60
2022-07-26T19:40:47.164Z,2.75
2022-07-26T19:43:16.534Z,2.83
2022-07-26T19:45:45.815Z,2.53
2022-07-26T19:48:16.594Z,3.03
2022-07-26T19:50:45.878Z,2.90
2022-07-26T19:53:15.140Z,2.97
2022-07-26T19:55:44.716Z,2.60
2022-07-26T19:58:13.936Z,2.85
2022-07-26T20:00:43.347Z,3.17
2022-07-26T20:03:13.766Z,2.90
2022-07-26T20:05:43.188Z,2.70
2022-07-26T20:08:12.490Z,2.65
2022-07-26T20:10:41.890Z,3.45
2022-07-26T20:13:11.298Z,2.75
2022-07-26T20:15:40.632Z,2.92
2022-07-26T20:18:11.547Z,3.53
2022-07-26T20:20:41.167Z,2.83
2022-07-26T20:23:12.088Z,3.28
2022-07-26T20:25:41.339Z,3.05
2022-07-26T20:28:10.754Z,3.53
2022-07-26T20:30:40.186Z,2.75
2022-07-26T20:33:09.576Z,2.58
2022-07-26T20:35:38.876Z,2.58
2022-07-26T20:38:08.526Z,2.70
2022-07-26T20:40:37.952Z,2.83
2022-07-26T20:43:08.962Z,3.15
2022-07-26T20:45:38.520Z,3.15
2022-07-26T20:48:08.622Z,3.08
2022-07-26T20:50:38.249Z,2.92
2022-07-26T20:53:19.796Z,3.10
2022-07-26T20:55:49.201Z,2.90
2022-07-26T20:58:19.151Z,3.25
2022-07-26T21:00:48.636Z,3.30
2022-07-26T21:03:18.302Z,3.30
2022-07-26T21:05:47.803Z,2.97
2022-07-26T21:08:17.176Z,2.63
2022-07-26T21:10:48.575Z,5.25
2022-07-26T21:13:18.265Z,3.00
2022-07-26T21:15:47.513Z,3.53
2022-07-26T21:18:16.822Z,3.25
2022-07-26T21:20:46.226Z,2.70
2022-07-26T21:23:18.480Z,3.35
2022-07-26T21:25:48.677Z,3.47
2022-07-26T21:28:27.260Z,3.20
2022-07-26T21:30:57.003Z,3.10
2022-07-26T21:33:26.399Z,3.10
2022-07-26T21:35:55.875Z,7.57
2022-07-26T21:38:25.110Z,4.85
2022-07-26T21:40:54.411Z,3.47
2022-07-26T21:43:23.973Z,3.47
2022-07-26T21:45:53.472Z,3.50
2022-07-26T21:48:24.131Z,3.88
2022-07-26T21:50:53.471Z,3.65
2022-07-26T21:53:22.677Z,3.72
2022-07-26T21:55:52.229Z,4.35
2022-07-26T21:58:23.476Z,4.03
2022-07-26T22:01:06.567Z,5.22
2022-07-26T22:03:38.794Z,4.70
2022-07-26T22:06:09.709Z,5.90
2022-07-26T22:08:39.685Z,5.03
2022-07-26T22:11:09.059Z,4.68
2022-07-26T22:13:39.491Z,4.43
2022-07-26T22:16:09.314Z,5.00
2022-07-26T22:18:38.671Z,4.32
2022-07-26T22:21:08.172Z,5.00
2022-07-26T22:23:37.489Z,5.05
2022-07-26T22:26:08.266Z,5.07
2022-07-26T22:28:39.241Z,5.35
2022-07-26T22:31:08.820Z,4.95
2022-07-26T22:33:38.191Z,5.45
2022-07-26T22:36:07.726Z,5.45
2022-07-26T22:38:37.029Z,6.60
2022-07-26T22:41:07.548Z,6.07
2022-07-26T22:43:36.817Z,5.70
2022-07-26T22:46:06.344Z,6.38
2022-07-26T22:48:38.337Z,6.60
2022-07-26T22:51:08.313Z,8.07
2022-07-26T22:53:37.500Z,7.05
2022-07-26T22:56:07.216Z,10.63
2022-07-26T22:58:36.493Z,39.30
2022-07-26T23:01:07.424Z,39.40
2022-07-26T23:03:36.923Z,34.03
2022-07-26T23:06:20.216Z,29.42
2022-07-26T23:08:56.956Z,28.63
2022-07-26T23:11:26.228Z,24.38
2022-07-26T23:13:58.917Z,23.42
2022-07-26T23:16:28.990Z,22.65
2022-07-26T23:18:58.522Z,20.17
2022-07-26T23:21:28.797Z,18.30
2022-07-26T23:23:58.535Z,15.75
2022-07-26T23:26:27.889Z,13.85
2022-07-26T23:28:57.289Z,12.10
2022-07-26T23:31:26.582Z,9.98
2022-07-26T23:33:55.943Z,9.10
2022-07-26T23:36:28.707Z,9.88
2022-07-26T23:39:00.666Z,6.15
2022-07-26T23:41:31.409Z,6.82
2022-07-26T23:44:01.280Z,6.22
2022-07-26T23:46:33.421Z,5.88
2022-07-26T23:49:08.812Z,6.40
2022-07-26T23:51:39.958Z,6.28
2022-07-26T23:54:12.220Z,5.55
2022-07-26T23:56:42.565Z,6.20
2022-07-26T23:59:12.311Z,6.20
